createdAt,value
2023-02-11T01:14:57.526Z,19.40
2023-02-11T01:18:01.333Z,19.60
2023-02-11T01:21:02.438Z,16.60
2023-02-11T01:24:03.669Z,17.50
2023-02-11T01:27:03.319Z,19.50
2023-02-11T01:30:04.574Z,17.50
2023-02-11T01:33:06.368Z,18.10
2023-02-11T01:36:09.457Z,16.10
2023-02-11T01:39:09.367Z,16.80
2023-02-11T01:42:10.334Z,17.80
2023-02-11T01:45:13.365Z,18.30
2023-02-11T01:48:15.345Z,19.90
2023-02-11T01:51:27.904Z,17.20
2023-02-11T01:54:52.359Z,17.40
2023-02-11T01:57:53.341Z,18.00
2023-02-11T02:00:55.494Z,18.30
2023-02-11T02:03:56.495Z,17.90
2023-02-11T02:07:09.399Z,19.20
2023-02-11T02:10:19.536Z,19.40
2023-02-11T02:13:23.379Z,18.50
2023-02-11T02:16:27.535Z,19.20
2023-02-11T02:19:40.474Z,17.60
2023-02-11T02:23:12.391Z,19.10
2023-02-11T02:26:27.413Z,19.10
2023-02-11T02:29:54.392Z,19.80
2023-02-11T02:33:07.932Z,19.60
2023-02-11T02:36:28.420Z,18.40
2023-02-11T02:39:37.502Z,18.80
2023-02-11T02:42:38.439Z,18.10
2023-02-11T02:45:38.420Z,18.60
2023-02-11T02:48:47.679Z,19.10
2023-02-11T02:51:56.454Z,19.30
2023-02-11T02:55:09.426Z,18.70
2023-02-11T02:58:40.448Z,17.80
2023-02-11T03:01:58.561Z,18.70
2023-02-11T03:05:34.481Z,17.90
2023-02-11T03:08:48.615Z,17.80
2023-02-11T03:11:49.507Z,18.30
2023-02-11T03:14:49.484Z,19.10
2023-02-11T03:17:52.498Z,18.70
2023-02-11T03:20:52.510Z,18.10
2023-02-11T03:24:07.750Z,18.10
2023-02-11T03:27:19.062Z,17.80
2023-02-11T03:30:23.518Z,17.70
2023-02-11T03:33:36.528Z,17.70
2023-02-11T03:36:54.590Z,19.30
2023-02-11T03:40:01.587Z,17.20
2023-02-11T03:43:09.821Z,17.70
2023-02-11T03:46:09.565Z,17.50
2023-02-11T03:49:11.547Z,17.30
2023-02-11T03:52:17.727Z,17.80
2023-02-11T03:55:25.708Z,15.80
2023-02-11T03:58:26.655Z,16.20
2023-02-11T04:01:26.629Z,16.60
2023-02-11T04:04:27.579Z,16.50
2023-02-11T04:07:30.668Z,18.90
2023-02-11T04:10:33.772Z,16.50
2023-02-11T04:13:36.615Z,18.20
2023-02-11T04:16:37.661Z,17.90
2023-02-11T04:19:38.634Z,15.90
2023-02-11T04:22:43.153Z,16.40
2023-02-11T04:25:47.673Z,16.70
2023-02-11T04:28:47.691Z,16.40
2023-02-11T04:31:48.747Z,17.20
2023-02-11T04:34:50.638Z,18.20
2023-02-11T04:37:52.628Z,17.20
2023-02-11T04:40:52.650Z,17.30
2023-02-11T04:43:53.709Z,16.50
2023-02-11T04:46:55.674Z,17.00
2023-02-11T04:49:58.795Z,14.60
2023-02-11T04:53:01.967Z,16.60
2023-02-11T04:56:02.711Z,16.20
2023-02-11T04:59:02.787Z,16.80
2023-02-11T05:02:02.782Z,16.30
2023-02-11T05:05:03.893Z,15.90
2023-02-11T05:08:04.667Z,15.10
2023-02-11T05:11:04.717Z,16.40
2023-02-11T05:14:08.536Z,17.50
2023-02-11T05:17:08.866Z,15.60
2023-02-11T05:20:08.676Z,16.10
2023-02-11T05:23:09.702Z,15.90
2023-02-11T05:26:10.857Z,15.80
2023-02-11T05:29:12.837Z,16.40
2023-02-11T05:32:21.682Z,18.10
2023-02-11T05:35:21.776Z,17.10
2023-02-11T05:38:27.155Z,18.40
2023-02-11T05:41:28.716Z,18.50
2023-02-11T05:44:28.699Z,18.70
2023-02-11T05:47:30.725Z,18.20
2023-02-11T05:50:32.700Z,17.20
2023-02-11T05:53:32.721Z,17.30
2023-02-11T05:56:43.776Z,16.90
2023-02-11T05:59:45.744Z,16.80
2023-02-11T06:02:47.137Z,17.20
2023-02-11T06:05:48.158Z,16.80
2023-02-11T06:08:51.761Z,16.20
2023-02-11T06:11:51.909Z,16.20
2023-02-11T06:14:52.818Z,17.00
2023-02-11T06:17:55.096Z,15.90
2023-02-11T06:20:58.769Z,16.20
2023-02-11T06:24:00.827Z,16.80
2023-02-11T06:27:00.814Z,14.90
2023-02-11T06:30:01.918Z,15.70
2023-02-11T06:33:02.796Z,14.70
2023-02-11T06:36:04.238Z,15.60
2023-02-11T06:39:04.875Z,16.20
2023-02-11T06:42:08.021Z,15.20
2023-02-11T06:45:14.608Z,16.20
2023-02-11T06:48:21.417Z,15.30
2023-02-11T06:51:23.799Z,15.40
2023-02-11T06:54:26.355Z,14.70
2023-02-11T06:57:26.807Z,15.60
2023-02-11T07:00:26.852Z,14.90
2023-02-11T07:03:27.907Z,16.80
2023-02-11T07:06:31.089Z,15.00
2023-02-11T07:09:34.902Z,17.50
2023-02-11T07:12:36.867Z,17.30
2023-02-11T07:15:38.949Z,16.30
2023-02-11T07:18:49.922Z,16.80
2023-02-11T07:21:55.366Z,16.80
2023-02-11T07:24:56.870Z,16.90
2023-02-11T07:28:00.497Z,16.80
2023-02-11T07:31:05.011Z,17.00
2023-02-11T07:34:06.156Z,19.60
2023-02-11T07:37:10.014Z,19.80
2023-02-11T07:40:13.016Z,18.00
2023-02-11T07:43:20.747Z,18.80
2023-02-11T07:46:31.966Z,18.50
2023-02-11T07:49:32.004Z,18.50
2023-02-11T07:52:31.933Z,19.00
2023-02-11T07:55:25.747Z,19.70
2023-02-11T07:58:25.996Z,21.30
2023-02-11T08:01:33.169Z,19.90
2023-02-11T08:04:34.042Z,19.40
2023-02-11T08:07:37.055Z,20.10
2023-02-11T08:10:38.958Z,19.40
2023-02-11T08:13:40.933Z,18.50
2023-02-11T08:16:58.296Z,19.20
2023-02-11T08:20:00.106Z,18.60
2023-02-11T08:23:04.992Z,19.70
2023-02-11T08:26:06.026Z,21.00
2023-02-11T08:29:07.411Z,19.10
2023-02-11T08:32:12.209Z,21.70
2023-02-11T08:35:14.449Z,21.90
2023-02-11T08:38:18.138Z,20.80
2023-02-11T08:41:21.509Z,21.60
2023-02-11T08:44:23.981Z,21.70
2023-02-11T08:47:27.998Z,23.40
2023-02-11T08:50:31.095Z,22.40
2023-02-11T08:53:40.544Z,23.00
2023-02-11T08:56:43.316Z,22.10
2023-02-11T08:59:45.979Z,23.70
2023-02-11T09:02:46.046Z,24.90
2023-02-11T09:05:46.688Z,24.40
2023-02-11T09:08:52.522Z,25.00
2023-02-11T09:11:56.238Z,21.80
2023-02-11T09:14:57.276Z,24.40
2023-02-11T09:17:59.068Z,22.00
2023-02-11T09:21:07.340Z,21.90
2023-02-11T09:24:10.534Z,22.60
2023-02-11T09:27:12.289Z,22.00
2023-02-11T09:30:20.071Z,22.10
2023-02-11T09:33:29.649Z,22.00
2023-02-11T09:36:36.107Z,23.20
2023-02-11T09:39:37.121Z,20.70
2023-02-11T09:42:48.105Z,21.90
2023-02-11T09:45:48.161Z,22.00
2023-02-11T09:48:53.378Z,22.80
2023-02-11T09:52:02.122Z,23.40
2023-02-11T09:55:06.143Z,21.90
2023-02-11T09:58:11.596Z,22.10
2023-02-11T10:01:28.225Z,24.10
2023-02-11T10:05:10.190Z,23.20
2023-02-11T10:08:34.135Z,22.30
2023-02-11T10:12:00.500Z,22.30
2023-02-11T10:15:40.803Z,24.00
2023-02-11T10:19:00.433Z,24.70
2023-02-11T10:22:23.555Z,21.00
2023-02-11T10:25:36.298Z,24.60
2023-02-11T10:28:47.247Z,23.40
2023-02-11T10:31:58.307Z,23.40
2023-02-11T10:35:04.764Z,21.60
2023-02-11T10:45:11.412Z,24.70
2023-02-11T10:48:19.615Z,23.70
2023-02-11T10:51:46.284Z,25.00
2023-02-11T10:54:46.241Z,23.70
2023-02-11T10:58:15.285Z,24.80
2023-02-11T11:04:55.324Z,26.30
2023-02-11T11:07:55.786Z,25.70
2023-02-11T11:10:58.286Z,23.90
2023-02-11T11:14:11.275Z,27.90
2023-02-11T11:17:13.237Z,25.00
2023-02-11T11:20:44.469Z,23.20
2023-02-11T11:23:52.271Z,24.20
2023-02-11T11:26:59.494Z,24.50
2023-02-11T11:30:06.312Z,23.60
2023-02-11T11:33:10.611Z,22.10
2023-02-11T11:36:15.454Z,23.20
2023-02-11T11:39:45.031Z,23.10
2023-02-11T11:42:53.347Z,23.50
2023-02-11T11:46:15.823Z,25.70
2023-02-11T11:49:32.292Z,25.40
2023-02-11T11:53:00.405Z,24.00
2023-02-11T11:56:13.592Z,23.50
2023-02-11T11:59:23.334Z,20.70
2023-02-11T12:02:52.409Z,22.10
2023-02-11T12:06:05.336Z,20.90
2023-02-11T12:09:35.357Z,21.10
2023-02-11T12:13:19.512Z,20.50
2023-02-11T12:16:48.438Z,22.40
2023-02-11T12:19:51.599Z,22.60
2023-02-11T12:23:13.381Z,22.00
2023-02-11T12:26:32.795Z,23.50
2023-02-11T12:29:50.357Z,22.50
2023-02-11T12:33:08.346Z,24.10
2023-02-11T12:36:45.374Z,24.20
2023-02-11T12:39:57.502Z,20.40
2023-02-11T12:43:22.386Z,21.10
2023-02-11T12:46:49.624Z,20.40
2023-02-11T12:50:05.431Z,20.70
2023-02-11T12:53:22.379Z,21.20
2023-02-11T12:56:28.423Z,20.70
2023-02-11T13:00:02.460Z,21.80
2023-02-11T13:03:19.127Z,17.70
2023-02-11T13:06:24.628Z,19.50
2023-02-11T13:09:33.469Z,20.10
2023-02-11T13:12:51.456Z,20.00
2023-02-11T13:15:55.572Z,17.00
2023-02-11T13:19:04.640Z,18.40
2023-02-11T13:22:18.634Z,19.10
2023-02-11T13:25:41.800Z,18.60
2023-02-11T13:29:08.519Z,16.40
2023-02-11T13:32:17.444Z,19.50
2023-02-11T13:35:42.791Z,16.20
2023-02-11T13:38:42.478Z,16.20
2023-02-11T13:41:40.383Z,16.10
2023-02-11T13:44:41.522Z,16.10
2023-02-11T13:47:44.531Z,16.50
2023-02-11T13:50:50.775Z,14.30
2023-02-11T13:54:11.568Z,16.10
2023-02-11T13:57:35.515Z,14.90
2023-02-11T14:00:49.290Z,14.40
2023-02-11T14:04:11.703Z,15.20
2023-02-11T14:08:02.637Z,13.30
2023-02-11T14:11:02.602Z,12.70
2023-02-11T14:14:03.526Z,11.70
2023-02-11T14:17:25.627Z,9.10
2023-02-11T14:20:46.610Z,9.70
2023-02-11T14:23:46.554Z,9.20
2023-02-11T14:26:59.746Z,9.70
2023-02-11T14:33:21.547Z,8.10
2023-02-11T14:36:49.749Z,8.90
2023-02-11T14:40:01.652Z,8.40
2023-02-11T14:43:05.604Z,9.10
2023-02-11T14:46:07.652Z,9.90
2023-02-11T14:49:10.602Z,11.40
2023-02-11T14:52:19.750Z,9.70
2023-02-11T14:55:29.631Z,14.20
2023-02-11T14:58:49.735Z,12.30
2023-02-11T15:01:53.677Z,10.70
2023-02-11T15:04:54.615Z,10.00
2023-02-11T15:07:59.781Z,10.40
2023-02-11T15:11:03.654Z,9.00
2023-02-11T15:14:05.989Z,8.90
2023-02-11T15:17:08.693Z,10.50
2023-02-11T15:20:12.673Z,10.40
2023-02-11T15:23:15.681Z,12.40
2023-02-11T15:26:24.684Z,12.20
2023-02-11T15:29:30.664Z,11.20
2023-02-11T15:33:03.945Z,12.50
2023-02-11T15:36:04.679Z,12.50
2023-02-11T15:39:31.714Z,12.30
2023-02-11T15:42:47.199Z,12.20
2023-02-11T15:45:58.832Z,12.60
2023-02-11T15:49:06.772Z,12.30
2023-02-11T15:52:08.711Z,12.40
2023-02-11T15:55:09.079Z,12.30
2023-02-11T15:58:13.815Z,12.70
2023-02-11T16:01:16.160Z,14.80
2023-02-11T16:04:20.976Z,14.60
2023-02-11T16:07:50.772Z,16.60
2023-02-11T16:10:52.044Z,14.60
2023-02-11T16:13:59.787Z,16.10
2023-02-11T16:17:01.711Z,16.10
2023-02-11T16:20:02.792Z,14.20
2023-02-11T16:23:03.791Z,15.10
2023-02-11T16:26:08.017Z,12.20
2023-02-11T16:29:15.998Z,16.50
2023-02-11T16:32:44.831Z,16.90
2023-02-11T16:35:44.863Z,14.20
2023-02-11T16:38:45.798Z,14.50
2023-02-11T16:41:45.807Z,15.70
2023-02-11T16:44:45.786Z,15.30
2023-02-11T16:47:46.790Z,15.20
2023-02-11T16:50:47.818Z,17.70
2023-02-11T16:53:49.866Z,16.60
2023-02-11T16:56:52.052Z,16.50
2023-02-11T17:02:52.822Z,15.40
2023-02-11T17:05:55.738Z,15.90
2023-02-11T17:09:02.898Z,15.80
2023-02-11T17:12:03.923Z,15.70
2023-02-11T17:15:07.536Z,14.90
2023-02-11T17:18:10.888Z,14.20
2023-02-11T17:21:12.987Z,14.00
2023-02-11T17:24:15.916Z,15.00
2023-02-11T17:27:16.172Z,14.60
2023-02-11T17:30:16.011Z,14.10
2023-02-11T17:33:16.179Z,15.00
2023-02-11T17:36:19.103Z,14.00
2023-02-11T17:39:21.939Z,13.30
2023-02-11T17:42:26.862Z,13.90
2023-02-11T17:45:26.986Z,13.50
2023-02-11T17:48:26.935Z,13.30
2023-02-11T17:51:44.949Z,14.00
2023-02-11T17:54:44.951Z,14.50
2023-02-11T17:57:45.089Z,13.20
2023-02-11T18:00:46.835Z,14.70
2023-02-11T18:03:49.998Z,15.00
2023-02-11T18:06:50.934Z,14.10
2023-02-11T18:09:53.832Z,16.40
2023-02-11T18:12:54.966Z,15.80
2023-02-11T18:15:59.166Z,14.30
2023-02-11T18:22:02.950Z,13.70
2023-02-11T18:25:09.930Z,12.80
2023-02-11T18:28:11.027Z,14.50
2023-02-11T18:31:12.339Z,14.20
2023-02-11T18:34:17.018Z,16.30
2023-02-11T18:37:18.472Z,13.70
2023-02-11T18:40:20.966Z,15.70
2023-02-11T18:43:21.187Z,15.30
2023-02-11T18:46:23.017Z,13.10
2023-02-11T18:49:25.153Z,15.90
2023-02-11T18:52:29.870Z,15.90
2023-02-11T18:55:32.083Z,15.70
2023-02-11T18:58:33.033Z,15.30
2023-02-11T19:01:39.153Z,15.70
2023-02-11T19:04:39.102Z,15.00
2023-02-11T19:07:39.110Z,16.30
2023-02-11T19:10:40.053Z,16.80
2023-02-11T19:13:42.111Z,14.40
2023-02-11T19:16:42.230Z,16.00
2023-02-11T19:19:47.374Z,15.40
2023-02-11T19:22:48.112Z,16.10
2023-02-11T19:25:48.179Z,15.40
2023-02-11T19:28:49.118Z,16.70
2023-02-11T19:31:50.470Z,12.60
2023-02-11T19:34:48.713Z,16.60
2023-02-11T19:37:55.648Z,16.10
2023-02-11T19:43:59.093Z,15.30
2023-02-11T19:46:59.151Z,17.00
2023-02-11T19:50:02.420Z,17.30
2023-02-11T19:53:09.185Z,16.10
2023-02-11T19:56:09.284Z,17.90
2023-02-11T19:59:11.128Z,17.30
2023-02-11T20:02:11.183Z,18.10
2023-02-11T20:05:11.161Z,19.20
2023-02-11T20:08:14.315Z,17.90
2023-02-11T20:11:24.132Z,20.20
2023-02-11T20:14:30.287Z,18.00
2023-02-11T20:17:32.153Z,16.60
2023-02-11T20:20:34.341Z,20.80
2023-02-11T20:23:40.159Z,18.60
2023-02-11T20:26:47.154Z,19.30
2023-02-11T20:29:48.161Z,20.10
2023-02-11T20:32:48.410Z,19.50
2023-02-11T20:35:50.371Z,19.50
2023-02-11T20:39:01.455Z,17.90
2023-02-11T20:42:09.935Z,20.10
2023-02-11T20:45:12.211Z,19.40
2023-02-11T20:48:12.252Z,18.90
2023-02-11T20:51:23.737Z,19.60
2023-02-11T20:54:31.548Z,19.20
2023-02-11T20:57:32.245Z,20.40
2023-02-11T21:00:34.528Z,15.70
2023-02-11T21:03:45.217Z,20.40
2023-02-11T21:06:50.229Z,20.10
2023-02-11T21:09:53.555Z,18.00
2023-02-11T21:12:58.240Z,20.20
2023-02-11T21:16:01.546Z,18.60
2023-02-11T21:19:02.875Z,19.70
2023-02-11T21:22:07.282Z,20.70
2023-02-11T21:25:08.461Z,19.80
2023-02-11T21:28:11.812Z,20.70
2023-02-11T21:31:13.392Z,18.50
2023-02-11T21:34:14.447Z,19.80
2023-02-11T21:37:15.224Z,19.90
2023-02-11T21:40:17.714Z,17.60
2023-02-11T21:43:19.256Z,20.00
2023-02-11T21:46:22.424Z,19.40
2023-02-11T21:49:26.283Z,18.60
2023-02-11T21:52:27.319Z,19.90
2023-02-11T21:55:27.356Z,20.00
2023-02-11T21:58:27.309Z,21.00
2023-02-11T22:01:30.618Z,19.20
2023-02-11T22:04:31.449Z,18.80
2023-02-11T22:07:33.322Z,19.50
2023-02-11T22:10:34.370Z,17.50
2023-02-11T22:13:35.341Z,19.30
2023-02-11T22:16:36.501Z,20.00
2023-02-11T22:19:38.373Z,19.40
2023-02-11T22:22:43.590Z,20.40
2023-02-11T22:25:43.431Z,19.20
2023-02-11T22:28:46.348Z,18.50
2023-02-11T22:34:46.363Z,19.60
2023-02-11T22:37:48.581Z,19.40
2023-02-11T22:40:48.395Z,15.60
2023-02-11T22:43:49.383Z,18.80
2023-02-11T22:46:50.628Z,20.50
2023-02-11T22:49:52.419Z,22.30
2023-02-11T22:52:54.378Z,17.80
2023-02-11T22:55:54.771Z,19.60
2023-02-11T22:58:55.648Z,18.50
2023-02-11T23:01:55.508Z,18.80
2023-02-11T23:04:56.465Z,20.90
2023-02-11T23:07:57.429Z,19.00
2023-02-11T23:10:59.417Z,18.30
2023-02-11T23:14:04.424Z,17.80
2023-02-11T23:17:05.428Z,18.80
2023-02-11T23:20:07.466Z,18.90
2023-02-11T23:23:07.667Z,18.30
2023-02-11T23:26:07.505Z,19.00
2023-02-11T23:29:10.424Z,17.70
2023-02-11T23:32:10.482Z,17.50
2023-02-11T23:35:10.464Z,19.00
2023-02-11T23:38:12.478Z,18.10
2023-02-11T23:41:12.529Z,16.90
2023-02-11T23:44:12.527Z,16.20
2023-02-11T23:47:13.487Z,18.50
2023-02-11T23:50:14.500Z,17.00
2023-02-11T23:53:15.484Z,16.60
2023-02-11T23:56:28.522Z,17.50
2023-02-11T23:59:29.492Z,15.40
